ADDS METAR Data INFO
IDs: Format: Raw Decoded Include TAF

Data at: 0110 UTC 24 Jun 2018

KCVH 240055Z AUTO 28008G20KT 240V330 9SM CLR 22/12 A2976 RMK A01
KCVH 240035Z AUTO 31009G14KT 10SM CLR 24/11 A2976 RMK A01
KCVH 240015Z AUTO 25016G23KT 10SM CLR 25/12 A2974 RMK A01
KCVH 232355Z AUTO 25019KT 10SM CLR 26/12 A2974 RMK A01
KCVH 232335Z AUTO 23017G23KT 10SM CLR 27/12 A2973 RMK A01
KCVH 232315Z AUTO 24018G25KT 10SM CLR 28/12 A2973 RMK A01
KCVH 232255Z AUTO 24020G25KT 10SM 29/11 A2973 RMK A01
KCVH 232235Z AUTO 24022KT 10SM CLR 29/12 A2973 RMK A01
KCVH 232215Z AUTO 24022KT 10SM CLR 30/12 A2973 RMK A01
KCVH 232155Z AUTO 25021G27KT 10SM CLR 30/11 A2973 RMK A01
KCVH 232135Z AUTO 25020KT 10SM CLR 30/11 A2973 RMK A01
KCVH 232115Z AUTO 25018KT 10SM CLR 31/12 A2973 RMK A01
KCVH 232055Z AUTO 25017KT 10SM CLR 32/12 A2974 RMK A01
KCVH 232035Z AUTO 25015KT 10SM CLR 33/13 A2974 RMK A01
KCVH 232015Z AUTO 25013KT 10SM CLR 34/15 A2974 RMK A01
KCVH 231955Z AUTO 31008KT 10SM 35/11 A2974 RMK A01
KCVH 231915Z AUTO VRB05KT 10SM CLR 34/10 A2975 RMK A01
KCVH 231855Z AUTO 32007KT 10SM CLR 33/10 A2976 RMK A01
KCVH 231835Z AUTO 31006KT 10SM CLR 31/11 A2977 RMK A01
KCVH 231815Z AUTO 30009KT 10SM CLR 30/11 A2978 RMK A01
KCVH 231755Z AUTO 00000KT 10SM CLR 29/12 A2978 RMK A01
KCVH 231735Z AUTO 00000KT 10SM CLR 27/11 A2978 RMK A01
KCVH 231715Z AUTO 00000KT 10SM CLR 26/11 A2978 RMK A01
KCVH 231655Z AUTO 00000KT 10SM CLR 25/10 A2979 RMK A01
KCVH 231635Z AUTO 00000KT 10SM CLR 24/10 A2980 RMK A01
KCVH 231615Z AUTO 00000KT 10SM CLR 23/10 A2980 RMK A01
KCVH 231555Z AUTO 00000KT 10SM CLR 22/11 A2980 RMK A01
KCVH 231535Z AUTO 00000KT 10SM CLR 20/10 A2981 RMK A01
KCVH 231515Z AUTO 00000KT 10SM CLR 19/10 A2981 RMK A01
KCVH 231455Z AUTO 00000KT 10SM CLR 18/10 A2981 RMK A01
KCVH 231435Z AUTO 00000KT 10SM CLR 17/10 A2981 RMK A01
KCVH 231415Z AUTO 00000KT 9SM CLR 15/10 A2980 RMK A01
KCVH 231355Z AUTO 00000KT 9SM CLR 14/10 A2981 RMK A01
KCVH 231335Z AUTO 00000KT 8SM CLR 13/09 A2980 RMK A01
KCVH 231315Z AUTO 00000KT 9SM CLR 12/09 A2980 RMK A01
KCVH 231255Z AUTO 00000KT 9SM CLR 12/09 A2980 RMK A01
KCVH 231235Z AUTO 00000KT 10SM CLR 12/09 A2980 RMK A01
KCVH 231215Z AUTO 00000KT 8SM CLR 12/10 A2980 RMK A01
KCVH 231155Z AUTO 00000KT 10SM CLR 13/09 A2979 RMK A01
KCVH 231135Z AUTO 00000KT 10SM CLR 12/07 A2979 RMK A01
KCVH 231115Z AUTO 00000KT 10SM CLR 13/10 A2979 RMK A01
KCVH 231055Z AUTO 00000KT 10SM CLR 14/10 A2979 RMK A01
KCVH 231035Z AUTO 00000KT 10SM CLR 13/09 A2979 RMK A01
KCVH 231015Z AUTO 00000KT 10SM CLR 14/09 A2979 RMK A01
KCVH 230955Z AUTO 00000KT 10SM CLR 13/09 A2980 RMK A01
KCVH 230935Z AUTO 00000KT 10SM CLR 14/09 A2980 RMK A01
KCVH 230915Z AUTO 00000KT 10SM CLR 13/09 A2980 RMK A01
KCVH 230855Z AUTO 00000KT 10SM CLR 13/09 A2980 RMK A01
KCVH 230835Z AUTO 00000KT 10SM CLR 15/10 A2980 RMK A01
KCVH 230815Z AUTO 00000KT 10SM CLR 15/10 A2980 RMK A01
KCVH 230755Z AUTO 00000KT 10SM CLR 15/10 A2980 RMK A01
KCVH 230735Z AUTO 00000KT 10SM CLR 16/10 A2981 RMK A01
KCVH 230715Z AUTO 00000KT 10SM CLR 16/10 A2981 RMK A01
KCVH 230655Z AUTO 00000KT 10SM CLR 17/10 A2982 RMK A01
KCVH 230635Z AUTO 00000KT 10SM CLR 17/10 A2981 RMK A01
KCVH 230615Z AUTO 00000KT 10SM CLR 18/10 A2982 RMK A01
KCVH 230555Z AUTO 20006KT 10SM CLR 18/10 A2983 RMK A01
KCVH 230535Z AUTO 20006KT 10SM CLR 18/11 A2983 RMK A01
KCVH 230515Z AUTO 20004KT 10SM CLR 19/11 A2983 RMK A01
KCVH 230455Z AUTO 00000KT 10SM CLR 19/11 A2982 RMK A01
KCVH 230435Z AUTO 19007KT 10SM CLR 20/11 A2982 RMK A01
KCVH 230415Z AUTO 16006KT 10SM CLR 21/10 A2982 RMK A01
KCVH 230355Z AUTO 00000KT 10SM CLR 21/11 A2981 RMK A01
KCVH 230335Z AUTO 00000KT 10SM CLR 22/11 A2981 RMK A01
KCVH 230315Z AUTO 22005KT 10SM CLR 24/10 A2980 RMK A01
KCVH 230255Z AUTO 00000KT 10SM CLR 25/11 A2980 RMK A01
KCVH 230235Z AUTO 25003KT 10SM CLR 26/11 A2980 RMK A01
KCVH 230215Z AUTO 24006KT 10SM CLR 27/11 A2980 RMK A01
KCVH 230155Z AUTO 24010KT 10SM CLR 27/10 A2980 RMK A01
KCVH 230135Z AUTO 10
KCVH 230115Z AUTO 25012KT 10SM CLR 28/10 A2980 RMK A01
KCVH 230055Z AUTO 25017KT 10SM CLR 28/11 A2980 RMK A01
KCVH 230035Z AUTO 24015KT 10SM CLR 28/12 A2980 RMK A01
KCVH 230015Z AUTO 24015G21KT 10SM CLR 28/12 A2980 RMK A01
KCVH 222355Z AUTO 24016G21KT 10SM CLR 29/12 A2981 RMK A01
KCVH 222335Z AUTO 25017KT 10SM CLR 29/13 A2981 RMK A01
KCVH 222315Z AUTO 24018KT 10SM CLR 31/13 A2981 RMK A01
KCVH 222255Z AUTO 25015KT 10SM CLR 32/13 A2982 RMK A01
KCVH 222235Z AUTO 25015KT 10SM CLR 32/13 A2983 RMK A01
KCVH 222215Z AUTO 24014KT 10SM CLR 32/13 A2984 RMK A01
KCVH 222155Z AUTO 25012KT 10SM CLR 32/12 A2984 RMK A01
KCVH 222135Z AUTO 25012KT 10SM CLR 33/12 A2985 RMK A01
KCVH 222115Z AUTO 24009KT 10SM CLR 32/13 A2986 RMK A01
KCVH 222055Z AUTO 24007KT 10SM CLR 32/13 A2986 RMK A01
KCVH 222035Z AUTO 24008KT 10SM CLR 31/13 A2987 RMK A01
KCVH 222015Z AUTO VRB04G11KT 10SM CLR 31/12 A2988 RMK A01
KCVH 221955Z AUTO 26007KT 10SM CLR 31/12 A2989 RMK A01
KCVH 221935Z AUTO 27003KT 10SM 31/12 A2990 RMK A01
KCVH 221915Z AUTO 00000KT 10SM 30/10 A2990 RMK A01
KCVH 221855Z AUTO 00000KT 10SM CLR 29/09 A2991 RMK A01
KCVH 221835Z AUTO 00000KT 10SM CLR 28/11 A2992 RMK A01
KCVH 221815Z AUTO 00000KT 10SM CLR 27/10 A2992 RMK A01
KCVH 221755Z AUTO 00000KT 10SM CLR 25/10 A2993 RMK A01
KCVH 221735Z AUTO 00000KT 10SM CLR 24/11 A2993 RMK A01
KCVH 221715Z AUTO 00000KT 10SM CLR 23/10 A2994 RMK A01
KCVH 221655Z AUTO 00000KT 10SM CLR 21/10 A2995 RMK A01
KCVH 221635Z AUTO 00000KT 10SM CLR 20/10 A2996 RMK A01
KCVH 221615Z AUTO 00000KT 8SM CLR 19/10 A2996 RMK A01
KCVH 221555Z AUTO 00000KT 10SM CLR 18/10 A2997 RMK A01
KCVH 221535Z AUTO 00000KT 10SM CLR 17/10 A2997 RMK A01
KCVH 221515Z AUTO 00000KT 10SM CLR 16/10 A2997 RMK A01
KCVH 221455Z AUTO 00000KT 10SM CLR 15/10 A2997 RMK A01
KCVH 221435Z AUTO 00000KT 10SM CLR 14/09 A2997 RMK A01
KCVH 221415Z AUTO 00000KT 10SM CLR 13/08 A2997 RMK A01
KCVH 221355Z AUTO 00000KT 10SM CLR 12/09 A2997 RMK A01
KCVH 221335Z AUTO 00000KT 10SM CLR 11/08 A2997 RMK A01
KCVH 221315Z AUTO 00000KT 10SM CLR 11/08 A2996 RMK A01